Observation data for Clarendon on 01/19/2019      Previous  Date  Next       Current Mesonet Observations  Soil Data  Daily Summary Page  Observations in Plain Language
KCES 190600Z 36026G37KT 01/M03 A2999 RMK A01 T00071032  RH  076%=      5-min Rain = 0
KCES 190605Z 35023G30KT 01/M03 A2999 RMK A01 T00071031  RH  076%=      5-min Rain = 0
KCES 190610Z 35026G35KT 01/M03 A30 RMK A01 T00071030  RH  077%=      5-min Rain = 0
KCES 190615Z 35027G36KT 01/M03 A30 RMK A01 T00071030  RH  077%=      5-min Rain = 0
KCES 190620Z 36028G38KT 01/M03 A3001 RMK A01 T00071030  RH  077%=      5-min Rain = 0
KCES 190625Z 35026G34KT 01/M03 A3001 RMK A01 T00061030  RH  077%=      5-min Rain = 0
KCES 190630Z 35033G40KT 01/M03 A3001 RMK A01 T00061030  RH  077%=      5-min Rain = 0
KCES 190635Z 35025G33KT 01/M03 A3002 RMK A01 T00061029  RH  078%=      5-min Rain = 0
KCES 190640Z 35025G36KT 01/M03 A3002 RMK A01 T00061030  RH  077%=      5-min Rain = 0
KCES 190645Z 35025G33KT 01/M03 A3003 RMK A01 T00061030  RH  078%=      5-min Rain = 0
KCES 190650Z 35023G30KT 01/M03 A3003 RMK A01 T00051029  RH  078%=      5-min Rain = 0
KCES 190655Z 35024G31KT 01/M03 A3003 RMK A01 T00051028  RH  079%=      5-min Rain = 0
KCES 190700Z 34025G33KT 01/M03 A3003 RMK A01 T00051027  RH  080%=      5-min Rain = 0
KCES 190705Z 34028G37KT 00/M03 A3003 RMK A01 T00041026  RH  081%=      5-min Rain = 0
KCES 190710Z 35024G31KT 00/M03 A3003 RMK A01 T00041026  RH  081%=      5-min Rain = 0
KCES 190715Z 34024G31KT 00/M03 A3003 RMK A01 T00041025  RH  082%=      5-min Rain = 0
KCES 190720Z 34021G27KT 00/M02 A3003 RMK A01 T00041024  RH  082%=      5-min Rain = 0
KCES 190725Z 34019G26KT 00/M02 A3003 RMK A01 T00041024  RH  082%=      5-min Rain = 0
KCES 190730Z 34021G29KT 00/M02 A3003 RMK A01 T00041023  RH  082%=      5-min Rain = 0
KCES 190735Z 34024G36KT 01/M03 A3003 RMK A01 T00051025  RH  081%=      5-min Rain = 0
KCES 190740Z 34028G38KT 01/M04 A3003 RMK A01 T00071035  RH  074%=      5-min Rain = 0
KCES 190745Z 34028G40KT 00/M04 A3004 RMK A01 T00031041  RH  073%=      5-min Rain = 0
KCES 190750Z 34030G37KT 00/05 A3004 RMK A01 T00000-45  RH  072%=      5-min Rain = 0
KCES 190755Z 34028G37KT M00/M05 A3004 RMK A01 T10011045  RH  072%=      5-min Rain = 0
KCES 190800Z 34030G38KT M00/M05 A3004 RMK A01 T10021045  RH  073%=      5-min Rain = 0
KCES 190805Z 34027G35KT M00/M05 A3005 RMK A01 T10031046  RH  073%=      5-min Rain = 0
KCES 190810Z 34029G39KT M00/M05 A3005 RMK A01 T10041048  RH  072%=      5-min Rain = 0
KCES 190815Z 34029G37KT M01/M05 A3006 RMK A01 T10051048  RH  073%=      5-min Rain = 0
KCES 190820Z 34027G36KT M01/M05 A3006 RMK A01 T10061049  RH  073%=      5-min Rain = 0
KCES 190825Z 35028G36KT M01/M05 A3006 RMK A01 T10071050  RH  073%=      5-min Rain = 0
KCES 190830Z 35026G33KT M01/M05 A3007 RMK A01 T10071049  RH  074%=      5-min Rain = 0
KCES 190835Z 34026G39KT M01/M05 A3007 RMK A01 T10071048  RH  074%=      5-min Rain = 0
KCES 190840Z 34027G36KT M01/M05 A3008 RMK A01 T10071048  RH  074%=      5-min Rain = 0
KCES 190845Z 34024G35KT M01/M05 A3008 RMK A01 T10071049  RH  074%=      5-min Rain = 0
KCES 190850Z 34028G34KT M01/M05 A3008 RMK A01 T10091050  RH  074%=      5-min Rain = 0
KCES 190855Z 34026G31KT M01/M05 A3009 RMK A01 T10101051  RH  074%=      5-min Rain = 0
KCES 190900Z 34027G36KT M01/M05 A3009 RMK A01 T10111053  RH  073%=      5-min Rain = 0
KCES 190905Z 35028G37KT M01/M06 A3009 RMK A01 T10121055  RH  073%=      5-min Rain = 0
KCES 190910Z 35026G38KT M01/M06 A3009 RMK A01 T10121056  RH  072%=      5-min Rain = 0
KCES 190915Z 34024G31KT M01/M06 A3009 RMK A01 T10121055  RH  073%=      5-min Rain = 0
KCES 190920Z 34023G32KT M01/M05 A3009 RMK A01 T10131053  RH  075%=      5-min Rain = 0
KCES 190925Z 34022G30KT M02/M05 A301 RMK A01 T10151053  RH  075%=      5-min Rain = 0
KCES 190930Z 34024G33KT M02/M06 A301 RMK A01 T10161056  RH  074%=      5-min Rain = 0
KCES 190935Z 34027G34KT M02/M06 A301 RMK A01 T10171060  RH  073%=      5-min Rain = 0
KCES 190940Z 34026G36KT M02/M06 A301 RMK A01 T10191062  RH  072%=      5-min Rain = 0
KCES 190945Z 34026G33KT M02/M06 A301 RMK A01 T10201064  RH  072%=      5-min Rain = 0
KCES 190950Z 34028G37KT M02/M07 A301 RMK A01 T10211065  RH  072%=      5-min Rain = 0
KCES 190955Z 35023G30KT M02/M06 A3011 RMK A01 T10221064  RH  073%=      5-min Rain = 0
KCES 191000Z 34023G30KT M02/M06 A3011 RMK A01 T10231064  RH  074%=      5-min Rain = 0
KCES 191005Z 34020G25KT M02/M06 A3012 RMK A01 T10231063  RH  074%=      5-min Rain = 0
KCES 191010Z 35021G29KT M02/M06 A3012 RMK A01 T10221062  RH  074%=      5-min Rain = 0
KCES 191015Z 34019G25KT M02/M06 A3012 RMK A01 T10221061  RH  074%=      5-min Rain = 0
KCES 191020Z 34018G25KT M02/M06 A3012 RMK A01 T10221060  RH  075%=      5-min Rain = 0
KCES 191025Z 34020G26KT M02/M06 A3012 RMK A01 T10221060  RH  075%=      5-min Rain = 0
KCES 191030Z 34022G30KT M02/M06 A3013 RMK A01 T10221061  RH  074%=      5-min Rain = 0
KCES 191035Z 34022G30KT M02/M06 A3013 RMK A01 T10221062  RH  074%=      5-min Rain = 0
KCES 191040Z 34021G27KT M02/M06 A3013 RMK A01 T10221063  RH  074%=      5-min Rain = 0
KCES 191045Z 34021G28KT M02/M06 A3013 RMK A01 T10221062  RH  074%=      5-min Rain = 0
KCES 191050Z 34022G28KT M02/M06 A3013 RMK A01 T10211062  RH  074%=      5-min Rain = 0
KCES 191055Z 34019G26KT M02/M06 A3013 RMK A01 T10211061  RH  074%=      5-min Rain = 0
KCES 191100Z 34021G28KT M02/M06 A3013 RMK A01 T10211060  RH  075%=      5-min Rain = 0
KCES 191105Z 34020G27KT M02/M06 A3013 RMK A01 T10211060  RH  075%=      5-min Rain = 0
KCES 191110Z 34022G29KT M02/M06 A3013 RMK A01 T10211059  RH  075%=      5-min Rain = 0
KCES 191115Z 34020G28KT M02/M06 A3013 RMK A01 T10211059  RH  075%=      5-min Rain = 0
KCES 191120Z 34024G33KT M02/M06 A3013 RMK A01 T10211060  RH  075%=      5-min Rain = 0
KCES 191125Z 34024G30KT M02/M06 A3013 RMK A01 T10211059  RH  075%=      5-min Rain = 0
KCES 191130Z 34022G29KT M02/M06 A3013 RMK A01 T10211059  RH  075%=      5-min Rain = 0
KCES 191135Z 34024G30KT M02/M06 A3013 RMK A01 T10211059  RH  076%=      5-min Rain = 0
KCES 191140Z 34022G28KT M02/M06 A3014 RMK A01 T10221059  RH  076%=      5-min Rain = 0
KCES 191145Z 34023G31KT M02/M06 A3014 RMK A01 T10211059  RH  076%=      5-min Rain = 0
KCES 191150Z 34021G27KT M02/M06 A3014 RMK A01 T10211057  RH  076%=      5-min Rain = 0
KCES 191155Z 34020G26KT M02/M06 A3015 RMK A01 T10211056  RH  077%=      5-min Rain = 0
KCES 191200Z 33018G26KT M02/M06 A3015 RMK A01 T10201055  RH  077%=      5-min Rain = 0
KCES 191205Z 33019G28KT M02/M06 A3015 RMK A01 T10211055  RH  078%=      5-min Rain = 0
KCES 191210Z 34020G26KT M02/M06 A3016 RMK A01 T10221055  RH  078%=      5-min Rain = 0
KCES 191215Z 33018G23KT M02/M06 A3016 RMK A01 T10221055  RH  078%=      5-min Rain = 0
KCES 191220Z 34020G26KT M02/M06 A3016 RMK A01 T10221055  RH  079%=      5-min Rain = 0
KCES 191225Z 34023G30KT M02/M06 A3016 RMK A01 T10211055  RH  078%=      5-min Rain = 0
KCES 191230Z 34020G29KT M02/M06 A3017 RMK A01 T10211055  RH  078%=      5-min Rain = 0
KCES 191235Z 34020G27KT M02/M05 A3017 RMK A01 T10211054  RH  079%=      5-min Rain = 0
KCES 191240Z 34023G34KT M02/M05 A3017 RMK A01 T10201053  RH  078%=      5-min Rain = 0
KCES 191245Z 34022G30KT M02/M05 A3018 RMK A01 T10191053  RH  078%=      5-min Rain = 0
KCES 191250Z 34020G26KT M02/M05 A3018 RMK A01 T10191054  RH  077%=      5-min Rain = 0
KCES 191255Z 34022G30KT M02/M05 A3018 RMK A01 T10201054  RH  078%=      5-min Rain = 0
KCES 191300Z 34020G30KT M02/M05 A3018 RMK A01 T10201054  RH  078%=      5-min Rain = 0
KCES 191305Z 34019KT M02/M05 A3018 RMK A01 T10211054  RH  078%=      5-min Rain = 0
KCES 191310Z 34021G30KT M02/M05 A3019 RMK A01 T10211054  RH  078%=      5-min Rain = 0
KCES 191315Z 34019G25KT M02/M05 A3019 RMK A01 T10211054  RH  078%=      5-min Rain = 0
KCES 191320Z 34021G27KT M02/M05 A3019 RMK A01 T10201054  RH  078%=      5-min Rain = 0
KCES 191325Z 34019G24KT M02/M05 A3019 RMK A01 T10201054  RH  078%=      5-min Rain = 0
KCES 191330Z 34020G26KT M02/M05 A302 RMK A01 T10201054  RH  078%=      5-min Rain = 0
KCES 191335Z 34019G25KT M02/M05 A302 RMK A01 T10201053  RH  078%=      5-min Rain = 0
KCES 191340Z 34018G23KT M02/M05 A3021 RMK A01 T10201054  RH  078%=      5-min Rain = 0
KCES 191345Z 34018G26KT M02/M05 A3021 RMK A01 T10201054  RH  078%=      5-min Rain = 0
KCES 191350Z 34018G26KT M02/M05 A3021 RMK A01 T10211054  RH  079%=      5-min Rain = 0
KCES 191355Z 34019G24KT M02/M05 A3022 RMK A01 T10211054  RH  078%=      5-min Rain = 0
KCES 191400Z 35018G24KT M02/M06 A3022 RMK A01 T10211055  RH  078%=      5-min Rain = 0
KCES 191405Z 35019G25KT M02/M06 A3022 RMK A01 T10211055  RH  078%=      5-min Rain = 0
KCES 191410Z 35018G27KT M02/M06 A3022 RMK A01 T10201055  RH  077%=      5-min Rain = 0
KCES 191415Z 35019G24KT M02/M06 A3022 RMK A01 T10191055  RH  077%=      5-min Rain = 0
KCES 191420Z 35018KT M02/M05 A3023 RMK A01 T10191054  RH  077%=      5-min Rain = 0
KCES 191425Z 34019G26KT M02/M05 A3023 RMK A01 T10161052  RH  077%=      5-min Rain = 0
KCES 191430Z 34020G28KT M01/M05 A3023 RMK A01 T10141052  RH  076%=      5-min Rain = 0
KCES 191435Z 34020G27KT M01/M05 A3024 RMK A01 T10141053  RH  075%=      5-min Rain = 0
KCES 191440Z 35021G27KT M01/M05 A3024 RMK A01 T10131054  RH  074%=      5-min Rain = 0
KCES 191445Z 34020G26KT M01/M05 A3024 RMK A01 T10121053  RH  074%=      5-min Rain = 0
KCES 191450Z 35023G31KT M01/M05 A3025 RMK A01 T10111053  RH  073%=      5-min Rain = 0
KCES 191455Z 35019G31KT M01/M05 A3025 RMK A01 T10091052  RH  073%=      5-min Rain = 0
KCES 191500Z 34024G30KT M01/M05 A3025 RMK A01 T10101053  RH  073%=      5-min Rain = 0
KCES 191505Z 34023G30KT M01/M05 A3026 RMK A01 T10121054  RH  073%=      5-min Rain = 0
KCES 191510Z 34021G27KT M01/M05 A3026 RMK A01 T10091052  RH  073%=      5-min Rain = 0
KCES 191515Z 34024G30KT M01/M06 A3027 RMK A01 T10081055  RH  071%=      5-min Rain = 0
KCES 191520Z 34024G31KT M01/M06 A3027 RMK A01 T10091056  RH  071%=      5-min Rain = 0
KCES 191525Z 34024G37KT M01/M06 A3028 RMK A01 T10091056  RH  071%=      5-min Rain = 0
KCES 191530Z 35024G32KT M01/M06 A3028 RMK A01 T10101057  RH  070%=      5-min Rain = 0
KCES 191535Z 34022G28KT M01/M06 A3028 RMK A01 T10081057  RH  070%=      5-min Rain = 0
KCES 191540Z 34023G28KT M01/M06 A3029 RMK A01 T10081056  RH  070%=      5-min Rain = 0
KCES 191545Z 35022G27KT M01/M06 A3029 RMK A01 T10081056  RH  070%=      5-min Rain = 0
KCES 191550Z 34023KT M01/M06 A3029 RMK A01 T10071056  RH  070%=      5-min Rain = 0
KCES 191555Z 35022G29KT M01/M06 A3029 RMK A01 T10051055  RH  069%=      5-min Rain = 0
KCES 191600Z 35022G28KT M01/M06 A3029 RMK A01 T10051055  RH  069%=      5-min Rain = 0
KCES 191605Z 34020G26KT M00/M05 A303 RMK A01 T10031053  RH  069%=      5-min Rain = 0
KCES 191610Z 34020G25KT M00/M05 A303 RMK A01 T10031053  RH  069%=      5-min Rain = 0
KCES 191615Z 34022G28KT M00/M05 A303 RMK A01 T10021054  RH  068%=      5-min Rain = 0
KCES 191620Z 34022G28KT M00/M06 A303 RMK A01 T10041055  RH  068%=      5-min Rain = 0
KCES 191625Z 35020G25KT M00/M06 A3031 RMK A01 T10031055  RH  068%=      5-min Rain = 0
KCES 191630Z 35020G27KT M00/M06 A3031 RMK A01 T10031055  RH  068%=      5-min Rain = 0
KCES 191635Z 36019G25KT M00/M05 A3031 RMK A01 T10021054  RH  068%=      5-min Rain = 0
KCES 191640Z 35019G27KT M00/M05 A3031 RMK A01 T10011054  RH  067%=      5-min Rain = 0
KCES 191645Z 35020G25KT M00/M05 A3031 RMK A01 T10011054  RH  067%=      5-min Rain = 0
KCES 191650Z 35017G23KT 00/05 A3032 RMK A01 T00-00-53  RH  068%=      5-min Rain = 0
KCES 191655Z 34018G26KT 00/M05 A3032 RMK A01 T00021052  RH  067%=      5-min Rain = 0
KCES 191700Z 34020G27KT 00/M05 A3032 RMK A01 T00031053  RH  066%=      5-min Rain = 0
KCES 191705Z 35017G25KT 00/M05 A3032 RMK A01 T00031053  RH  066%=      5-min Rain = 0
KCES 191710Z 35021G29KT 00/M05 A3032 RMK A01 T00031054  RH  066%=      5-min Rain = 0
KCES 191715Z 35021G27KT 01/M05 A3032 RMK A01 T00061053  RH  065%=      5-min Rain = 0
KCES 191720Z 35020G26KT 01/M05 A3032 RMK A01 T00071053  RH  064%=      5-min Rain = 0
KCES 191725Z 35021G29KT 01/M05 A3032 RMK A01 T00101051  RH  064%=      5-min Rain = 0
KCES 191730Z 35021G27KT 02/M05 A3031 RMK A01 T00151051  RH  062%=      5-min Rain = 0
KCES 191735Z 35020G29KT 02/M05 A3031 RMK A01 T00171050  RH  061%=      5-min Rain = 0
KCES 191740Z 34023KT 02/M05 A3031 RMK A01 T00181050  RH  061%=      5-min Rain = 0
KCES 191745Z 33022G27KT 02/M05 A3031 RMK A01 T00191050  RH  061%=      5-min Rain = 0
KCES 191750Z 35021G27KT 02/M05 A3031 RMK A01 T00221049  RH  060%=      5-min Rain = 0
KCES 191755Z 35021G27KT 02/M05 A3031 RMK A01 T00241049  RH  059%=      5-min Rain = 0
KCES 191800Z 35020G26KT 02/M05 A3031 RMK A01 T00241049  RH  059%=      5-min Rain = 0
KCES 191805Z 34019G25KT 03/M05 A3031 RMK A01 T00251048  RH  059%=      5-min Rain = 0
KCES 191810Z 34021KT 03/M05 A3031 RMK A01 T00261048  RH  059%=      5-min Rain = 0
KCES 191815Z 35021G26KT 02/M05 A3031 RMK A01 T00241048  RH  059%=      5-min Rain = 0
KCES 191820Z 34020G26KT 03/M05 A3031 RMK A01 T00271046  RH  059%=      5-min Rain = 0
KCES 191825Z 35019G25KT 03/M05 A3031 RMK A01 T00291046  RH  058%=      5-min Rain = 0
KCES 191830Z 33020G27KT 03/M05 A303 RMK A01 T00291046  RH  058%=      5-min Rain = 0
KCES 191835Z 33021G28KT 03/M05 A303 RMK A01 T00301046  RH  058%=      5-min Rain = 0
KCES 191840Z 33021KT 03/M05 A303 RMK A01 T00291046  RH  058%=      5-min Rain = 0
KCES 191845Z 34020G25KT 03/M05 A303 RMK A01 T00291045  RH  058%=      5-min Rain = 0
KCES 191850Z 34022G28KT 03/M05 A303 RMK A01 T00281045  RH  059%=      5-min Rain = 0
KCES 191855Z 34020G25KT 03/M04 A303 RMK A01 T00311044  RH  058%=      5-min Rain = 0
KCES 191900Z 34020G28KT 03/M04 A3029 RMK A01 T00331043  RH  058%=      5-min Rain = 0
KCES 191905Z 34020G25KT 03/M04 A3029 RMK A01 T00341043  RH  057%=      5-min Rain = 0
KCES 191910Z 33020G26KT 04/M04 A3028 RMK A01 T00351042  RH  057%=      5-min Rain = 0
KCES 191915Z 34022KT 04/M04 A3028 RMK A01 T00351042  RH  057%=      5-min Rain = 0
KCES 191920Z 34022KT 03/M04 A3028 RMK A01 T00341043  RH  057%=      5-min Rain = 0
KCES 191925Z 34020G25KT 04/M04 A3027 RMK A01 T00361042  RH  057%=      5-min Rain = 0
KCES 191930Z 33018G23KT 04/M04 A3027 RMK A01 T00361041  RH  057%=      5-min Rain = 0
KCES 191935Z 34020KT 04/M04 A3027 RMK A01 T00381041  RH  056%=      5-min Rain = 0
KCES 191940Z 34021G27KT 04/M04 A3026 RMK A01 T00401041  RH  056%=      5-min Rain = 0
KCES 191945Z 34020G25KT 04/M04 A3026 RMK A01 T00401041  RH  056%=      5-min Rain = 0
KCES 191950Z 35018G23KT 04/M04 A3026 RMK A01 T00421040  RH  055%=      5-min Rain = 0
KCES 191955Z 34022G28KT 04/M04 A3026 RMK A01 T00431041  RH  055%=      5-min Rain = 0
KCES 192000Z 34020G25KT 04/M04 A3025 RMK A01 T00421039  RH  056%=      5-min Rain = 0
KCES 192005Z 34019KT 05/M04 A3025 RMK A01 T00451039  RH  055%=      5-min Rain = 0
KCES 192010Z 34019G25KT 05/M04 A3025 RMK A01 T00471038  RH  054%=      5-min Rain = 0
KCES 192015Z 34020KT 05/M04 A3025 RMK A01 T00481037  RH  054%=      5-min Rain = 0
KCES 192020Z 33020KT 05/M04 A3025 RMK A01 T00451037  RH  056%=      5-min Rain = 0
KCES 192025Z 34019G26KT 05/M04 A3024 RMK A01 T00471036  RH  055%=      5-min Rain = 0
KCES 192030Z 35017KT 05/M04 A3024 RMK A01 T00501035  RH  054%=      5-min Rain = 0
KCES 192035Z 34019G25KT 05/M04 A3024 RMK A01 T00501036  RH  054%=      5-min Rain = 0
KCES 192040Z 33020G25KT 05/M04 A3024 RMK A01 T00501036  RH  054%=      5-min Rain = 0
KCES 192045Z 34019G26KT 05/M04 A3024 RMK A01 T00511035  RH  054%=      5-min Rain = 0
KCES 192050Z 34018G24KT 05/M03 A3024 RMK A01 T00521034  RH  054%=      5-min Rain = 0
KCES 192055Z 34018G23KT 05/M03 A3024 RMK A01 T00521033  RH  055%=      5-min Rain = 0
KCES 192100Z 34019KT 05/M03 A3024 RMK A01 T00521034  RH  054%=      5-min Rain = 0
KCES 192105Z 34017G22KT 05/M03 A3024 RMK A01 T00541032  RH  054%=      5-min Rain = 0
KCES 192110Z 34018G23KT 05/M03 A3025 RMK A01 T00541032  RH  054%=      5-min Rain = 0
KCES 192115Z 33018G23KT 05/M03 A3025 RMK A01 T00541032  RH  054%=      5-min Rain = 0
KCES 192120Z 34017G23KT 06/M03 A3025 RMK A01 T00561032  RH  053%=      5-min Rain = 0
KCES 192125Z 34017G22KT 06/M03 A3025 RMK A01 T00551033  RH  053%=      5-min Rain = 0
KCES 192130Z 35015KT 06/M03 A3025 RMK A01 T00561032  RH  053%=      5-min Rain = 0
KCES 192135Z 33015G20KT 06/M03 A3025 RMK A01 T00571032  RH  053%=      5-min Rain = 0
KCES 192140Z 33015KT 06/M03 A3026 RMK A01 T00571032  RH  053%=      5-min Rain = 0
KCES 192145Z 33015G20KT 06/M03 A3026 RMK A01 T00581031  RH  053%=      5-min Rain = 0
KCES 192150Z 33015G20KT 06/M03 A3026 RMK A01 T00581034  RH  052%=      5-min Rain = 0
KCES 192155Z 33014G19KT 06/M03 A3026 RMK A01 T00591032  RH  052%=      5-min Rain = 0
KCES 192200Z 33015KT 06/M04 A3026 RMK A01 T00581035  RH  052%=      5-min Rain = 0
KCES 192205Z 34013KT 06/M03 A3026 RMK A01 T00581034  RH  052%=      5-min Rain = 0
KCES 192210Z 34013G18KT 06/M03 A3026 RMK A01 T00581033  RH  052%=      5-min Rain = 0
KCES 192215Z 34013KT 06/M03 A3026 RMK A01 T00581033  RH  052%=      5-min Rain = 0
KCES 192220Z 34013KT 06/M03 A3026 RMK A01 T00591032  RH  052%=      5-min Rain = 0
KCES 192225Z 34014G19KT 06/M03 A3026 RMK A01 T00591034  RH  052%=      5-min Rain = 0
KCES 192230Z 33015KT 06/M03 A3026 RMK A01 T00591034  RH  052%=      5-min Rain = 0
KCES 192235Z 34013KT 06/M03 A3026 RMK A01 T00581034  RH  052%=      5-min Rain = 0
KCES 192240Z 34013KT 06/M03 A3026 RMK A01 T00581034  RH  052%=      5-min Rain = 0
KCES 192245Z 34012KT 06/M03 A3026 RMK A01 T00581032  RH  053%=      5-min Rain = 0
KCES 192250Z 33012KT 06/M03 A3027 RMK A01 T00581033  RH  052%=      5-min Rain = 0
KCES 192255Z 33011KT 06/M03 A3027 RMK A01 T00571033  RH  053%=      5-min Rain = 0
KCES 192300Z 32010KT 06/M03 A3026 RMK A01 T00561033  RH  053%=      5-min Rain = 0
KCES 192305Z 33012KT 06/M03 A3026 RMK A01 T00551034  RH  053%=      5-min Rain = 0
KCES 192310Z 33012KT 05/M04 A3026 RMK A01 T00541035  RH  053%=      5-min Rain = 0
KCES 192315Z 34010KT 05/M04 A3026 RMK A01 T00531035  RH  053%=      5-min Rain = 0
KCES 192320Z 33010KT 05/M04 A3027 RMK A01 T00531035  RH  054%=      5-min Rain = 0
KCES 192325Z 32011KT 05/M03 A3027 RMK A01 T00521034  RH  054%=      5-min Rain = 0
KCES 192330Z 33010KT 05/M03 A3027 RMK A01 T00501034  RH  055%=      5-min Rain = 0
KCES 192335Z 32009KT 05/M03 A3027 RMK A01 T00481034  RH  056%=      5-min Rain = 0
KCES 192340Z 32010KT 05/M04 A3027 RMK A01 T00461035  RH  056%=      5-min Rain = 0
KCES 192345Z 32008KT 04/M04 A3027 RMK A01 T00441035  RH  057%=      5-min Rain = 0
KCES 192350Z 32007KT 04/M04 A3027 RMK A01 T00411036  RH  058%=      5-min Rain = 0
KCES 192355Z 31006KT 04/M04 A3028 RMK A01 T00371037  RH  059%=      5-min Rain = 0
KCES 200000Z 32006KT 03/M04 A3027 RMK A01 T00321039  RH  060%=      5-min Rain = 0
KCES 200005Z 33006KT 03/M04 A3027 RMK A01 T00271040  RH  061%=      5-min Rain = 0
KCES 200010Z 33006KT 02/M04 A3027 RMK A01 T00221042  RH  063%=      5-min Rain = 0
KCES 200015Z 32006KT 02/M04 A3027 RMK A01 T00181043  RH  064%=      5-min Rain = 0
KCES 200020Z 33008KT 01/M05 A3027 RMK A01 T00141045  RH  065%=      5-min Rain = 0
KCES 200025Z 34007KT 01/M05 A3027 RMK A01 T00101045  RH  067%=      5-min Rain = 0
KCES 200030Z 34006KT 01/M04 A3027 RMK A01 T00111043  RH  067%=      5-min Rain = 0
KCES 200035Z 36004KT 01/M04 A3027 RMK A01 T00101044  RH  067%=      5-min Rain = 0
KCES 200040Z 02003KT 01/M05 A3027 RMK A01 T00051047  RH  068%=      5-min Rain = 0
KCES 200045Z 02002KT 00/M05 A3027 RMK A01 T00021048  RH  069%=      5-min Rain = 0
KCES 200050Z 00002KT M00/M05 A3027 RMK A01 T10011049  RH  070%=      5-min Rain = 0
KCES 200055Z 32001KT M00/M05 A3027 RMK A01 T10031049  RH  071%=      5-min Rain = 0
KCES 200100Z 32002KT M01/M05 A3027 RMK A01 T10061052  RH  071%=      5-min Rain = 0
KCES 200105Z 33002KT M01/M05 A3027 RMK A01 T10091052  RH  073%=      5-min Rain = 0
KCES 200110Z 32002KT M01/M05 A3027 RMK A01 T10111053  RH  074%=      5-min Rain = 0
KCES 200115Z 31001KT M01/M05 A3027 RMK A01 T10111050  RH  075%=      5-min Rain = 0
KCES 200120Z 30000KT M01/M05 A3026 RMK A01 T10081048  RH  075%=      5-min Rain = 0
KCES 200125Z 30000KT M01/M05 A3026 RMK A01 T10141054  RH  074%=      5-min Rain = 0
KCES 200130Z 31000KT M02/M06 A3026 RMK A01 T10181055  RH  076%=      5-min Rain = 0
KCES 200135Z 21000KT M03/M07 A3026 RMK A01 T10291069  RH  074%=      5-min Rain = 0
KCES 200140Z 21000KT M04/M08 A3026 RMK A01 T10421075  RH  078%=      5-min Rain = 0
KCES 200145Z 00000KT M04/M06 A3025 RMK A01 T10351057  RH  085%=      5-min Rain = 0
KCES 200150Z 21000KT M02/M05 A3025 RMK A01 T10191046  RH  082%=      5-min Rain = 0
KCES 200155Z 11001KT M02/M05 A3025 RMK A01 T10181049  RH  080%=      5-min Rain = 0
KCES 200200Z 13002KT M01/M05 A3025 RMK A01 T10131047  RH  078%=      5-min Rain = 0
KCES 200205Z 09002KT M02/M05 A3026 RMK A01 T10181051  RH  078%=      5-min Rain = 0
KCES 200210Z 05001KT M03/M06 A3026 RMK A01 T10261064  RH  075%=      5-min Rain = 0
KCES 200215Z 04002KT M04/M08 A3026 RMK A01 T10431078  RH  077%=      5-min Rain = 0
KCES 200220Z 23001KT M05/M08 A3027 RMK A01 T10471075  RH  081%=      5-min Rain = 0
KCES 200225Z 30001KT M05/M07 A3027 RMK A01 T10461070  RH  084%=      5-min Rain = 0
KCES 200230Z 04003KT M04/M06 A3027 RMK A01 T10411062  RH  085%=      5-min Rain = 0
KCES 200235Z 02002KT M04/M06 A3027 RMK A01 T10351059  RH  084%=      5-min Rain = 0
KCES 200240Z 02003KT M04/M07 A3027 RMK A01 T10391066  RH  082%=      5-min Rain = 0
KCES 200245Z 02002KT M04/M07 A3027 RMK A01 T10431068  RH  082%=      5-min Rain = 0
KCES 200250Z 02001KT M05/M07 A3027 RMK A01 T10451069  RH  083%=      5-min Rain = 0
KCES 200255Z 26001KT M04/M07 A3028 RMK A01 T10441067  RH  085%=      5-min Rain = 0
KCES 200300Z 03001KT M04/M06 A3027 RMK A01 T10371055  RH  088%=      5-min Rain = 0
KCES 200305Z 04001KT M03/M05 A3027 RMK A01 T10271049  RH  086%=      5-min Rain = 0
KCES 200310Z 03001KT M04/M06 A3027 RMK A01 T10351063  RH  081%=      5-min Rain = 0
KCES 200315Z 02001KT M04/M07 A3027 RMK A01 T10411069  RH  081%=      5-min Rain = 0
KCES 200320Z 02001KT M05/M07 A3027 RMK A01 T10481073  RH  083%=      5-min Rain = 0
KCES 200325Z 02000KT M04/M06 A3027 RMK A01 T10411061  RH  086%=      5-min Rain = 0
KCES 200330Z 12000KT M03/M05 A3027 RMK A01 T10321052  RH  087%=      5-min Rain = 0
KCES 200335Z 06002KT M03/M05 A3026 RMK A01 T10261047  RH  086%=      5-min Rain = 0
KCES 200340Z 06006KT M02/M04 A3025 RMK A01 T10161044  RH  081%=      5-min Rain = 0
KCES 200345Z 08003KT M02/M06 A3026 RMK A01 T10221055  RH  078%=      5-min Rain = 0
KCES 200350Z 19002KT M04/M07 A3027 RMK A01 T10381066  RH  081%=      5-min Rain = 0
KCES 200355Z 13003KT M03/M05 A3026 RMK A01 T10341054  RH  086%=      5-min Rain = 0
KCES 200400Z 10004KT M03/M05 A3025 RMK A01 T10291053  RH  084%=      5-min Rain = 0
KCES 200405Z 16003KT M04/M06 A3026 RMK A01 T10351058  RH  084%=      5-min Rain = 0
KCES 200410Z 13005KT M03/M06 A3026 RMK A01 T10341055  RH  086%=      5-min Rain = 0
KCES 200415Z 12005KT M03/M05 A3025 RMK A01 T10321052  RH  086%=      5-min Rain = 0
KCES 200420Z 12006KT M03/M05 A3024 RMK A01 T10291048  RH  087%=      5-min Rain = 0
KCES 200425Z 11008KT M03/M05 A3024 RMK A01 T10261047  RH  086%=      5-min Rain = 0
KCES 200430Z 11006KT M03/M05 A3025 RMK A01 T10251047  RH  085%=      5-min Rain = 0
KCES 200435Z 13004KT M03/M05 A3025 RMK A01 T10261049  RH  084%=      5-min Rain = 0
KCES 200440Z 19003KT M03/M06 A3026 RMK A01 T10331056  RH  084%=      5-min Rain = 0
KCES 200445Z 20003KT M04/M06 A3026 RMK A01 T10371057  RH  086%=      5-min Rain = 0
KCES 200450Z 21005KT M04/M05 A3027 RMK A01 T10351053  RH  088%=      5-min Rain = 0
KCES 200455Z 19003KT M03/M05 A3028 RMK A01 T10331051  RH  087%=      5-min Rain = 0
KCES 200500Z 17006KT M03/M05 A3027 RMK A01 T10321050  RH  087%=      5-min Rain = 0
KCES 200505Z 19007KT M03/M05 A3027 RMK A01 T10341054  RH  087%=      5-min Rain = 0
KCES 200510Z 19005KT M03/M05 A3028 RMK A01 T10341052  RH  088%=      5-min Rain = 0
KCES 200515Z 20002KT M03/M05 A3029 RMK A01 T10321049  RH  088%=      5-min Rain = 0
KCES 200520Z 23002KT M03/M05 A3029 RMK A01 T10311050  RH  087%=      5-min Rain = 0
KCES 200525Z 22002KT M03/M05 A303 RMK A01 T10301049  RH  087%=      5-min Rain = 0
KCES 200530Z 20003KT M03/M05 A3029 RMK A01 T10321051  RH  087%=      5-min Rain = 0
KCES 200535Z 20004KT M03/M05 A3029 RMK A01 T10341054  RH  086%=      5-min Rain = 0
KCES 200540Z 19005KT M04/M06 A3029 RMK A01 T10401059  RH  087%=      5-min Rain = 0
KCES 200545Z 21004KT M04/M06 A3029 RMK A01 T10431062  RH  087%=      5-min Rain = 0
KCES 200550Z 18005KT M04/M06 A3029 RMK A01 T10431059  RH  089%=      5-min Rain = 0
KCES 200555Z 21004KT M04/M06 A3029 RMK A01 T10431061  RH  087%=      5-min Rain = 0

Page generated in 0.0092 seconds.